Time;durP1;ratioP1;P1;durP2;ratioP2;P2;SDS_P1;SDS_P2;PMS_P1;PMS_P2;Temp;Humidity;BMP_temperature;BMP_pressure;BME280_temperature;BME280_humidity;BME280_pressure;Samples;Min_cycle;Max_cycle;Signal;HPM_P1;HPM_P2
2023/12/26 00:00:50;;;;;;;2.40;0.90;;;12.40;99.90;;;;;;5052506;28;20489;-68
2023/12/26 00:03:16;;;;;;;2.72;0.50;;;12.40;99.90;;;;;;5059201;22;20558;-69
2023/12/26 00:05:42;;;;;;;0.10;0.10;;;12.40;99.90;;;;;;5052291;28;20017;-69
2023/12/26 00:08:08;;;;;;;12.60;0.60;;;12.50;99.90;;;;;;5034443;28;20036;-69
2023/12/26 00:10:34;;;;;;;1.75;0.60;;;12.50;99.90;;;;;;5034407;28;20025;-70
2023/12/26 00:13:01;;;;;;;3.20;1.50;;;12.50;99.90;;;;;;5052124;28;20162;-70
2023/12/26 00:15:27;;;;;;;6.03;0.82;;;12.50;99.90;;;;;;5052271;28;20096;-68
2023/12/26 00:17:53;;;;;;;1.38;1.00;;;12.40;99.90;;;;;;5026254;28;20056;-69
2023/12/26 00:20:19;;;;;;;2.38;0.95;;;12.50;99.90;;;;;;5015098;28;20053;-69
2023/12/26 00:22:45;;;;;;;1.13;0.57;;;12.50;99.90;;;;;;5037892;28;20029;-68
2023/12/26 00:25:12;;;;;;;19.38;1.00;;;12.50;99.90;;;;;;5055620;28;20017;-70
2023/12/26 00:27:39;;;;;;;0.10;0.10;;;12.50;99.90;;;;;;5055792;28;20071;-72
2023/12/26 00:30:10;;;;;;;2.80;1.10;;;12.60;99.90;;;;;;5055584;28;20446;-69
2023/12/26 00:32:37;;;;;;;0.43;0.30;;;12.60;99.90;;;;;;5037783;28;20043;-69
2023/12/26 00:35:03;;;;;;;0.80;0.57;;;12.60;99.90;;;;;;5055420;28;20021;-69
2023/12/26 00:37:31;;;;;;;2.30;0.45;;;12.60;99.90;;;;;;5055522;28;20052;-69
2023/12/26 00:39:57;;;;;;;1.15;0.60;;;12.60;99.90;;;;;;5021159;28;20104;-68
2023/12/26 00:42:23;;;;;;;0.68;0.50;;;12.70;99.90;;;;;;5037531;28;20079;-68
2023/12/26 00:44:49;;;;;;;2.30;0.35;;;12.70;99.90;;;;;;5037709;28;20381;-68
2023/12/26 00:47:15;;;;;;;0.10;0.10;;;12.70;99.90;;;;;;5055562;28;20024;-68
2023/12/26 00:49:41;;;;;;;3.53;0.47;;;12.70;99.90;;;;;;5055019;28;20540;-69
2023/12/26 00:52:07;;;;;;;5.05;0.80;;;12.70;99.90;;;;;;5037534;28;20503;-68
2023/12/26 00:54:33;;;;;;;0.60;0.47;;;12.60;99.90;;;;;;5037154;28;20117;-68
2023/12/26 00:56:59;;;;;;;0.30;0.30;;;12.60;99.90;;;;;;5037458;28;20116;-69
2023/12/26 00:59:25;;;;;;;3.08;0.40;;;12.60;99.90;;;;;;5055095;28;20496;-69
2023/12/26 01:01:51;;;;;;;0.20;0.20;;;12.60;99.90;;;;;;5054733;28;20037;-68
2023/12/26 01:04:18;;;;;;;0.13;0.13;;;12.70;99.90;;;;;;5055036;28;20163;-69
2023/12/26 01:06:45;;;;;;;2.40;0.77;;;12.70;99.90;;;;;;5055108;28;20052;-69
2023/12/26 01:09:12;;;;;;;0.20;0.20;;;12.70;99.90;;;;;;5036589;28;20053;-69
2023/12/26 01:11:38;;;;;;;0.45;0.30;;;12.70;99.90;;;;;;5041833;28;20029;-68
2023/12/26 01:14:04;;;;;;;0.00;0.00;;;12.70;99.90;;;;;;5034255;28;20045;-68
2023/12/26 01:16:30;;;;;;;1.83;0.88;;;12.80;99.90;;;;;;5033119;28;20061;-67
2023/12/26 01:18:57;;;;;;;0.10;0.10;;;12.70;99.90;;;;;;5016990;28;20022;-68
2023/12/26 01:21:22;;;;;;;0.20;0.20;;;12.80;99.90;;;;;;5034674;28;20057;-68
2023/12/26 01:23:51;;;;;;;2.28;0.25;;;12.80;99.90;;;;;;5016745;28;20152;-69
2023/12/26 01:26:17;;;;;;;6.32;1.27;;;12.80;99.90;;;;;;5016931;28;20394;-70
2023/12/26 01:28:42;;;;;;;0.25;0.20;;;12.80;99.90;;;;;;5016901;28;20022;-68
2023/12/26 01:31:08;;;;;;;0.40;0.17;;;12.80;99.90;;;;;;5016735;28;20064;-70
2023/12/26 01:33:34;;;;;;;0.55;0.43;;;12.90;99.90;;;;;;5016167;28;20048;-68
2023/12/26 01:36:00;;;;;;;12.95;0.73;;;12.80;99.90;;;;;;5025798;28;20030;-69
2023/12/26 01:38:26;;;;;;;0.20;0.20;;;12.80;99.90;;;;;;5011395;28;20113;-68
2023/12/26 01:40:52;;;;;;;0.20;0.20;;;12.80;99.90;;;;;;5016745;28;20132;-70
2023/12/26 01:43:18;;;;;;;0.95;0.45;;;12.90;99.90;;;;;;5016813;28;20418;-69
2023/12/26 01:45:45;;;;;;;2.40;0.45;;;12.80;99.90;;;;;;5033956;28;20125;-70
2023/12/26 01:48:12;;;;;;;1.38;0.82;;;12.80;99.90;;;;;;5016686;28;20099;-68
2023/12/26 01:50:38;;;;;;;0.70;0.52;;;12.80;99.90;;;;;;5034084;28;20029;-69
2023/12/26 01:53:05;;;;;;;7.93;0.38;;;12.80;99.90;;;;;;5032612;28;20128;-69
2023/12/26 01:55:32;;;;;;;0.30;0.30;;;12.80;99.90;;;;;;5016376;28;20033;-69
2023/12/26 01:58:00;;;;;;;0.35;0.35;;;12.80;99.90;;;;;;5016600;28;20129;-68
2023/12/26 02:00:26;;;;;;;0.10;0.10;;;12.70;99.90;;;;;;5016235;28;20025;-68
2023/12/26 02:02:53;;;;;;;0.10;0.10;;;12.80;99.90;;;;;;5033707;28;20038;-69
2023/12/26 02:05:19;;;;;;;0.45;0.30;;;12.70;99.90;;;;;;5032928;28;20021;-69
2023/12/26 02:07:45;;;;;;;0.52;0.52;;;12.70;99.90;;;;;;5015697;28;20040;-68
2023/12/26 02:10:11;;;;;;;1.42;0.35;;;12.70;99.90;;;;;;5034073;28;20116;-68
2023/12/26 02:12:37;;;;;;;0.55;0.40;;;12.70;99.90;;;;;;5015744;28;20442;-69
2023/12/26 02:15:04;;;;;;;0.40;0.15;;;12.70;99.90;;;;;;5016096;28;20129;-69
2023/12/26 02:17:31;;;;;;;0.50;0.20;;;12.70;99.90;;;;;;5033830;28;20107;-69
2023/12/26 02:19:57;;;;;;;0.32;0.32;;;12.70;99.90;;;;;;5016108;28;20044;-69
2023/12/26 02:22:23;;;;;;;3.13;1.40;;;12.70;99.90;;;;;;5033908;28;20029;-69
2023/12/26 02:24:49;;;;;;;1.30;0.57;;;12.70;99.90;;;;;;5033583;28;20036;-69
2023/12/26 02:27:22;;;;;;;0.52;0.20;;;12.70;99.90;;;;;;5033742;28;20083;-68
2023/12/26 02:29:50;;;;;;;4.68;0.85;;;12.70;99.90;;;;;;5015707;28;20025;-69
2023/12/26 02:32:21;;;;;;;0.30;0.30;;;12.70;99.90;;;;;;5033382;28;20048;-69
2023/12/26 02:34:55;;;;;;;0.88;0.55;;;12.70;99.90;;;;;;5015783;28;20044;-68
2023/12/26 02:37:24;;;;;;;0.10;0.10;;;12.80;99.90;;;;;;5015891;28;20106;-70
2023/12/26 02:39:51;;;;;;;0.75;0.30;;;12.70;99.90;;;;;;5033186;28;20032;-67
2023/12/26 02:42:18;;;;;;;4.38;0.60;;;12.80;99.90;;;;;;5015352;28;20124;-70
2023/12/26 02:44:44;;;;;;;0.20;0.20;;;12.80;99.90;;;;;;5015131;28;20116;-68
2023/12/26 02:47:10;;;;;;;0.20;0.13;;;12.80;99.90;;;;;;5033073;28;20151;-70
2023/12/26 02:49:36;;;;;;;2.90;0.65;;;12.80;99.90;;;;;;5015521;28;20386;-68
2023/12/26 02:52:02;;;;;;;6.45;1.13;;;12.90;99.90;;;;;;5033004;28;20017;-69
2023/12/26 02:54:29;;;;;;;0.52;0.20;;;12.80;99.90;;;;;;5033142;28;20118;-68
2023/12/26 02:56:54;;;;;;;1.30;0.68;;;12.80;99.90;;;;;;5015226;28;20060;-69
2023/12/26 02:59:21;;;;;;;1.40;0.50;;;12.80;99.90;;;;;;5015600;28;20025;-69
2023/12/26 03:01:47;;;;;;;0.00;0.00;;;12.80;99.90;;;;;;5015179;28;20068;-69
2023/12/26 03:04:13;;;;;;;0.30;0.30;;;12.70;99.90;;;;;;5032645;28;20045;-69
2023/12/26 03:06:39;;;;;;;0.38;0.30;;;12.70;99.90;;;;;;5015244;28;20107;-70
2023/12/26 03:09:05;;;;;;;5.00;0.88;;;12.80;99.90;;;;;;5033083;28;20025;-68
2023/12/26 03:11:31;;;;;;;6.93;1.08;;;12.80;99.90;;;;;;5015278;28;20030;-68
2023/12/26 03:13:58;;;;;;;2.20;0.45;;;12.70;99.90;;;;;;5032754;28;20057;-68
2023/12/26 03:16:24;;;;;;;3.95;0.73;;;12.70;99.90;;;;;;5033028;28;20029;-69
2023/12/26 03:18:51;;;;;;;3.15;1.40;;;12.70;99.90;;;;;;5032637;28;20048;-70
2023/12/26 03:21:17;;;;;;;2.63;1.65;;;12.70;99.90;;;;;;5032942;28;20024;-69
2023/12/26 03:23:43;;;;;;;0.55;0.52;;;12.70;99.90;;;;;;5032723;28;20034;-69
2023/12/26 03:26:08;;;;;;;0.63;0.63;;;12.70;99.90;;;;;;5032713;28;20032;-69
2023/12/26 03:28:35;;;;;;;8.15;1.15;;;12.70;99.90;;;;;;5032892;28;20017;-69
2023/12/26 03:31:05;;;;;;;0.30;0.30;;;12.70;99.90;;;;;;5032786;28;20033;-67
2023/12/26 03:33:31;;;;;;;1.15;0.50;;;12.70;99.90;;;;;;5032265;28;20029;-69
2023/12/26 03:35:58;;;;;;;8.48;1.23;;;12.60;99.90;;;;;;5032722;28;20375;-70
2023/12/26 03:38:24;;;;;;;2.75;1.02;;;12.70;99.90;;;;;;5032493;28;20029;-69
2023/12/26 03:40:50;;;;;;;1.65;1.15;;;12.70;99.90;;;;;;5032861;28;20076;-70
2023/12/26 03:43:18;;;;;;;0.38;0.38;;;12.70;99.90;;;;;;5014627;28;20025;-68
2023/12/26 03:45:46;;;;;;;0.10;0.10;;;12.70;99.90;;;;;;5015130;28;20029;-69
2023/12/26 03:48:12;;;;;;;1.02;0.70;;;12.70;99.90;;;;;;5032461;28;20446;-68
2023/12/26 03:50:38;;;;;;;0.20;0.20;;;12.70;99.90;;;;;;5032527;28;20088;-69
2023/12/26 03:53:04;;;;;;;2.08;1.45;;;12.60;99.90;;;;;;5031070;28;20490;-70
2023/12/26 03:55:30;;;;;;;1.80;0.57;;;12.70;99.90;;;;;;5014882;28;20029;-68
2023/12/26 03:57:57;;;;;;;0.13;0.13;;;12.60;99.90;;;;;;5018693;28;20025;-69
2023/12/26 04:00:23;;;;;;;1.45;0.75;;;12.70;99.90;;;;;;5036295;28;20087;-70
2023/12/26 04:02:49;;;;;;;5.70;1.58;;;12.60;99.90;;;;;;5018330;28;20451;-69
2023/12/26 04:05:15;;;;;;;3.10;1.27;;;12.60;99.90;;;;;;5034777;28;20109;-69
2023/12/26 04:07:42;;;;;;;0.88;0.68;;;12.50;99.90;;;;;;5018624;28;20024;-69
2023/12/26 04:10:08;;;;;;;0.28;0.28;;;12.60;99.90;;;;;;5018330;28;20401;-69
2023/12/26 04:12:35;;;;;;;1.23;1.13;;;12.70;99.90;;;;;;5018222;28;20026;-68
2023/12/26 04:15:01;;;;;;;12.50;2.78;;;12.60;99.90;;;;;;5018366;28;20370;-70
2023/12/26 04:17:28;;;;;;;0.77;0.50;;;12.60;99.90;;;;;;5034458;28;20033;-69
2023/12/26 04:19:54;;;;;;;1.77;0.93;;;12.60;99.90;;;;;;5002090;28;20112;-69
2023/12/26 04:22:20;;;;;;;2.38;0.98;;;12.60;99.90;;;;;;5017857;28;20132;-69
2023/12/26 04:24:46;;;;;;;0.40;0.40;;;12.60;99.90;;;;;;5018097;28;20025;-69
2023/12/26 04:27:12;;;;;;;0.25;0.25;;;12.50;99.90;;;;;;5018323;28;20048;-69
2023/12/26 04:29:37;;;;;;;2.50;0.52;;;12.40;99.90;;;;;;5017800;28;20045;-70
2023/12/26 04:32:04;;;;;;;15.18;0.88;;;12.30;99.90;;;;;;5035503;28;20045;-69
2023/12/26 04:34:30;;;;;;;0.25;0.17;;;12.10;99.90;;;;;;5001608;28;20129;-70
2023/12/26 04:36:56;;;;;;;0.03;0.03;;;12.00;99.90;;;;;;5018091;28;20116;-69
2023/12/26 04:39:22;;;;;;;0.20;0.20;;;11.90;99.90;;;;;;5017786;28;20389;-68
2023/12/26 04:41:48;;;;;;;0.90;0.38;;;12.00;99.90;;;;;;5017734;28;20024;-69
2023/12/26 04:44:14;;;;;;;2.38;0.43;;;12.00;99.90;;;;;;5017848;28;20026;-69
2023/12/26 04:46:40;;;;;;;0.28;0.10;;;11.90;99.90;;;;;;5017502;28;20021;-67
2023/12/26 04:49:05;;;;;;;3.97;0.80;;;11.80;99.90;;;;;;5035482;28;20049;-70
2023/12/26 04:51:31;;;;;;;0.00;0.00;;;11.70;99.90;;;;;;5017583;28;20017;-69
2023/12/26 04:53:58;;;;;;;0.00;0.00;;;11.60;99.90;;;;;;5017692;28;20044;-69
2023/12/26 04:56:26;;;;;;;1.27;0.47;;;11.70;99.90;;;;;;5017550;28;20030;-70
2023/12/26 04:58:52;;;;;;;0.08;0.08;;;11.60;99.90;;;;;;5034557;28;20091;-68
2023/12/26 05:01:20;;;;;;;1.55;1.45;;;11.60;99.90;;;;;;5016681;28;20033;-68
2023/12/26 05:03:46;;;;;;;0.17;0.17;;;11.50;99.90;;;;;;5016531;28;20386;-69
2023/12/26 05:06:17;;;;;;;1.25;0.90;;;11.50;99.90;;;;;;5017143;28;20032;-68
2023/12/26 05:08:43;;;;;;;0.10;0.10;;;11.50;99.90;;;;;;5017075;28;20036;-69
2023/12/26 05:11:09;;;;;;;0.00;0.00;;;11.50;99.90;;;;;;5013880;28;20471;-69
2023/12/26 05:13:36;;;;;;;0.30;0.25;;;11.50;99.90;;;;;;5009945;28;20089;-68
2023/12/26 05:16:03;;;;;;;2.65;0.70;;;11.50;99.90;;;;;;5016595;28;20022;-69
2023/12/26 05:18:30;;;;;;;3.28;1.42;;;11.50;99.90;;;;;;5017067;28;20040;-69
2023/12/26 05:20:56;;;;;;;0.38;0.38;;;11.50;99.90;;;;;;5034543;28;20021;-68
2023/12/26 05:23:22;;;;;;;0.32;0.32;;;11.40;99.90;;;;;;5017555;28;20064;-69
2023/12/26 05:25:48;;;;;;;3.38;1.20;;;11.50;99.90;;;;;;5016952;28;20033;-69
2023/12/26 05:28:14;;;;;;;0.20;0.20;;;11.40;99.90;;;;;;5016940;28;20112;-70
2023/12/26 05:30:40;;;;;;;0.10;0.10;;;11.40;99.90;;;;;;5016248;28;20048;-70
2023/12/26 05:33:06;;;;;;;1.33;0.98;;;11.40;99.90;;;;;;5034619;28;20037;-69
2023/12/26 05:35:32;;;;;;;0.45;0.45;;;11.40;99.90;;;;;;5016768;28;20052;-69
2023/12/26 05:37:58;;;;;;;1.02;0.32;;;11.40;99.90;;;;;;5016982;28;20124;-70
2023/12/26 05:40:24;;;;;;;9.18;1.30;;;11.40;99.90;;;;;;5016741;28;20436;-69
2023/12/26 05:42:49;;;;;;;0.95;0.57;;;11.30;99.90;;;;;;5005053;28;20132;-68
2023/12/26 05:45:17;;;;;;;0.22;0.22;;;11.30;99.90;;;;;;5016080;28;20018;-68
2023/12/26 05:47:43;;;;;;;7.03;0.45;;;11.30;99.90;;;;;;5016806;28;20072;-68
2023/12/26 05:50:09;;;;;;;0.00;0.00;;;11.40;99.90;;;;;;5016660;28;20076;-68
2023/12/26 05:52:36;;;;;;;0.20;0.20;;;11.30;99.90;;;;;;5034000;28;20390;-69
2023/12/26 05:55:02;;;;;;;0.10;0.10;;;11.30;99.90;;;;;;5034378;28;20036;-70
2023/12/26 05:57:28;;;;;;;18.25;0.70;;;11.40;99.90;;;;;;5016088;28;20060;-69
2023/12/26 05:59:54;;;;;;;0.50;0.50;;;11.30;99.90;;;;;;5016270;28;20057;-69
2023/12/26 06:02:20;;;;;;;0.15;0.15;;;11.30;99.90;;;;;;5001960;28;20418;-68
2023/12/26 06:04:46;;;;;;;2.60;1.08;;;11.30;99.90;;;;;;5016011;28;20072;-69
2023/12/26 06:07:12;;;;;;;0.05;0.05;;;11.30;99.90;;;;;;5032339;28;20117;-69
2023/12/26 06:09:39;;;;;;;3.50;0.75;;;11.30;99.90;;;;;;5016132;28;20021;-68
2023/12/26 06:12:05;;;;;;;1.45;0.88;;;11.30;99.90;;;;;;5015591;28;20049;-69
2023/12/26 06:14:32;;;;;;;0.30;0.10;;;11.30;99.90;;;;;;5015743;28;20079;-69
2023/12/26 06:17:01;;;;;;;4.00;0.85;;;11.30;99.90;;;;;;5016163;28;20060;-68
2023/12/26 06:19:28;;;;;;;1.95;0.70;;;11.30;99.90;;;;;;5032725;28;20017;-68
2023/12/26 06:21:54;;;;;;;11.20;1.35;;;11.20;99.90;;;;;;4999704;28;20021;-69
2023/12/26 06:24:21;;;;;;;0.45;0.45;;;11.20;99.90;;;;;;4987071;28;20494;-68
2023/12/26 06:26:47;;;;;;;0.90;0.50;;;11.20;99.90;;;;;;5031550;28;20482;-68
2023/12/26 06:29:14;;;;;;;7.07;1.67;;;11.10;99.90;;;;;;5016081;28;20025;-69
2023/12/26 06:31:40;;;;;;;0.30;0.30;;;11.10;99.90;;;;;;5032105;28;20031;-69
2023/12/26 06:34:06;;;;;;;1.65;1.33;;;11.10;99.90;;;;;;5015816;28;20033;-69
2023/12/26 06:36:32;;;;;;;10.50;0.95;;;11.10;99.90;;;;;;5015600;28;20026;-68
2023/12/26 06:39:03;;;;;;;0.00;0.00;;;11.10;99.90;;;;;;5015889;28;20030;-67
2023/12/26 06:41:29;;;;;;;3.03;0.85;;;11.00;99.90;;;;;;5032890;28;20034;-70
2023/12/26 06:43:58;;;;;;;1.02;0.98;;;10.90;99.90;;;;;;5016002;28;20113;-69
2023/12/26 06:46:25;;;;;;;1.77;0.28;;;10.90;99.90;;;;;;5015473;28;20025;-69
2023/12/26 06:48:51;;;;;;;3.55;0.95;;;10.90;99.90;;;;;;5032067;28;20375;-68
2023/12/26 06:51:17;;;;;;;11.73;1.38;;;10.80;99.90;;;;;;5015618;28;20056;-68
2023/12/26 06:53:43;;;;;;;0.15;0.15;;;10.70;99.90;;;;;;5015213;28;20071;-69
2023/12/26 06:56:09;;;;;;;2.72;0.55;;;10.70;99.90;;;;;;5015478;28;20034;-68
2023/12/26 06:58:35;;;;;;;7.65;1.98;;;10.70;99.90;;;;;;5015186;28;20025;-70
2023/12/26 07:01:02;;;;;;;1.67;1.25;;;10.70;99.90;;;;;;5015674;28;20025;-70
2023/12/26 07:03:28;;;;;;;0.10;0.10;;;10.70;99.90;;;;;;5015070;28;20025;-68
2023/12/26 07:05:54;;;;;;;0.22;0.22;;;10.70;99.90;;;;;;5015290;28;20566;-70
2023/12/26 07:08:20;;;;;;;1.35;0.20;;;10.70;99.90;;;;;;5033044;28;20021;-69
2023/12/26 07:10:46;;;;;;;7.63;1.10;;;10.70;99.90;;;;;;5032754;28;20040;-69
2023/12/26 07:13:12;;;;;;;1.08;0.47;;;10.60;99.90;;;;;;5032783;28;20561;-68
2023/12/26 07:15:39;;;;;;;0.25;0.25;;;10.60;99.90;;;;;;5032663;28;20108;-70
2023/12/26 07:18:05;;;;;;;0.20;0.20;;;10.60;99.90;;;;;;5033131;28;20421;-68
2023/12/26 07:20:30;;;;;;;2.38;0.30;;;10.70;99.90;;;;;;5015251;28;20076;-69
2023/12/26 07:22:56;;;;;;;0.10;0.10;;;10.70;99.90;;;;;;5032531;28;20490;-69
2023/12/26 07:25:22;;;;;;;0.10;0.10;;;10.60;99.90;;;;;;5032791;28;20056;-69
2023/12/26 07:27:48;;;;;;;0.52;0.17;;;10.60;99.90;;;;;;5032685;28;20053;-69
2023/12/26 07:30:14;;;;;;;0.35;0.35;;;10.60;99.90;;;;;;5033911;28;20071;-68
2023/12/26 07:32:40;;;;;;;8.25;2.13;;;10.80;99.90;;;;;;5036746;28;20037;-71
2023/12/26 07:35:06;;;;;;;2.80;1.00;;;10.70;99.90;;;;;;5036772;28;20036;-69
2023/12/26 07:37:32;;;;;;;6.97;0.90;;;10.60;99.90;;;;;;5036671;28;20021;-68
2023/12/26 07:39:59;;;;;;;0.35;0.35;;;10.60;99.90;;;;;;5036716;28;20484;-69
2023/12/26 07:42:26;;;;;;;0.00;0.00;;;10.60;99.90;;;;;;5050848;22;20419;-70
2023/12/26 07:44:52;;;;;;;0.00;0.00;;;10.50;99.90;;;;;;5038843;28;20124;-69
2023/12/26 07:47:17;;;;;;;0.32;0.32;;;10.40;99.90;;;;;;5076838;28;20103;-70
2023/12/26 07:49:43;;;;;;;0.93;0.28;;;10.40;99.90;;;;;;5076534;28;20167;-70
2023/12/26 07:52:09;;;;;;;0.10;0.10;;;10.30;99.90;;;;;;5076282;28;20053;-70
2023/12/26 07:54:35;;;;;;;0.10;0.10;;;10.30;99.90;;;;;;5074331;28;20036;-70
2023/12/26 07:57:01;;;;;;;14.95;1.65;;;10.30;99.90;;;;;;5075607;28;20033;-69
2023/12/26 07:59:27;;;;;;;1.65;0.98;;;10.20;99.90;;;;;;5074905;28;20120;-68
2023/12/26 08:01:52;;;;;;;0.10;0.10;;;10.20;99.90;;;;;;5075940;28;20078;-69
2023/12/26 08:04:18;;;;;;;18.20;1.13;;;10.10;99.90;;;;;;5076418;28;20021;-69
2023/12/26 08:06:44;;;;;;;3.03;1.02;;;10.10;99.90;;;;;;5050708;28;20488;-69
2023/12/26 08:09:10;;;;;;;1.73;0.65;;;10.00;99.90;;;;;;5040202;28;20028;-68
2023/12/26 08:11:37;;;;;;;6.70;0.82;;;10.00;99.90;;;;;;5066271;28;20045;-70
2023/12/26 08:14:03;;;;;;;0.03;0.03;;;10.00;99.90;;;;;;5073719;28;20033;-70
2023/12/26 08:16:28;;;;;;;5.38;1.00;;;10.00;99.90;;;;;;5064497;28;20112;-69
2023/12/26 08:18:57;;;;;;;0.32;0.32;;;10.10;99.90;;;;;;5075901;28;20060;-69
2023/12/26 08:21:24;;;;;;;2.08;0.73;;;10.00;99.90;;;;;;5075791;28;20031;-69
2023/12/26 08:23:50;;;;;;;4.50;1.33;;;10.10;99.90;;;;;;5066436;28;20058;-69
2023/12/26 08:26:16;;;;;;;0.20;0.20;;;10.00;99.90;;;;;;5070861;28;20020;-70
2023/12/26 08:28:42;;;;;;;0.30;0.30;;;10.00;99.90;;;;;;5076043;28;20047;-70
2023/12/26 08:31:08;;;;;;;0.10;0.10;;;10.00;99.90;;;;;;5062927;28;20033;-70
2023/12/26 08:33:35;;;;;;;1.02;0.85;;;10.00;99.90;;;;;;5073479;28;20109;-71
2023/12/26 08:36:02;;;;;;;1.08;0.82;;;10.00;99.90;;;;;;5075791;28;20073;-68
2023/12/26 08:38:28;;;;;;;1.35;1.25;;;9.90;99.90;;;;;;5074817;28;20044;-69
2023/12/26 08:40:55;;;;;;;0.40;0.40;;;9.80;99.90;;;;;;5076004;28;20024;-69
2023/12/26 08:43:22;;;;;;;0.00;0.00;;;9.80;99.90;;;;;;5061174;28;20119;-69
2023/12/26 08:45:47;;;;;;;0.52;0.38;;;9.80;99.90;;;;;;5076130;28;20103;-69
2023/12/26 08:48:13;;;;;;;0.65;0.45;;;9.80;99.90;;;;;;5076408;28;20457;-69
2023/12/26 08:50:39;;;;;;;0.50;0.30;;;9.80;99.90;;;;;;5076024;28;20028;-68
2023/12/26 08:53:05;;;;;;;0.00;0.00;;;9.80;99.90;;;;;;5075371;28;20075;-68
2023/12/26 08:55:31;;;;;;;0.00;0.00;;;9.90;99.90;;;;;;5061980;28;20047;-69
2023/12/26 08:57:57;;;;;;;0.30;0.30;;;9.90;99.90;;;;;;5075865;28;20041;-69
2023/12/26 09:00:23;;;;;;;7.80;0.88;;;9.90;99.90;;;;;;5075875;28;20112;-68
2023/12/26 09:02:49;;;;;;;0.20;0.20;;;9.90;99.90;;;;;;5076047;28;20366;-69
2023/12/26 09:05:16;;;;;;;0.13;0.13;;;10.10;99.90;;;;;;5075419;28;20089;-69
2023/12/26 09:07:42;;;;;;;3.10;1.25;;;10.10;99.90;;;;;;5047390;28;20021;-69
2023/12/26 09:10:08;;;;;;;0.57;0.15;;;10.10;99.90;;;;;;5074964;28;20077;-69
2023/12/26 09:12:34;;;;;;;0.47;0.35;;;10.10;99.90;;;;;;5074810;28;20040;-69
2023/12/26 09:15:00;;;;;;;1.85;0.22;;;10.20;99.90;;;;;;5074874;28;20020;-69
2023/12/26 09:17:26;;;;;;;1.40;1.10;;;10.30;99.90;;;;;;5074956;28;20055;-70
2023/12/26 09:19:51;;;;;;;0.65;0.65;;;10.30;99.90;;;;;;5074527;28;20052;-70
2023/12/26 09:22:17;;;;;;;4.90;0.60;;;10.40;99.90;;;;;;5087394;22;20055;-70
2023/12/26 09:24:43;;;;;;;26.27;1.92;;;10.30;99.90;;;;;;5099769;28;20038;-72
2023/12/26 09:27:09;;;;;;;3.50;1.13;;;10.20;99.90;;;;;;5115375;28;20121;-71
2023/12/26 09:29:35;;;;;;;9.95;0.80;;;10.30;99.90;;;;;;5114213;28;20213;-72
2023/12/26 09:32:01;;;;;;;3.40;0.80;;;10.60;99.90;;;;;;5113622;22;20470;-70
2023/12/26 09:34:27;;;;;;;27.77;2.25;;;10.60;99.90;;;;;;5087229;28;20031;-70
2023/12/26 09:36:53;;;;;;;3.80;2.38;;;10.50;99.90;;;;;;5061625;28;20465;-69
2023/12/26 09:39:19;;;;;;;0.00;0.00;;;10.50;99.90;;;;;;5074555;28;20115;-70
2023/12/26 09:41:52;;;;;;;4.43;1.75;;;10.40;99.90;;;;;;5091038;28;20024;-69
2023/12/26 09:44:19;;;;;;;26.10;2.55;;;10.30;99.90;;;;;;5094527;28;20031;-70
2023/12/26 09:46:45;;;;;;;15.50;2.10;;;10.10;99.90;;;;;;5094452;28;20418;-69
2023/12/26 09:49:11;;;;;;;0.20;0.20;;;10.00;99.90;;;;;;5094556;28;20028;-70
2023/12/26 09:51:43;;;;;;;0.90;0.75;;;10.00;99.90;;;;;;5093868;28;20067;-70
2023/12/26 09:54:11;;;;;;;1.30;0.98;;;10.00;99.90;;;;;;5094517;28;20031;-69
2023/12/26 09:56:42;;;;;;;0.25;0.25;;;9.90;99.90;;;;;;5094457;28;20016;-71
2023/12/26 09:59:10;;;;;;;2.10;0.65;;;9.90;99.90;;;;;;5094385;28;20034;-70
2023/12/26 10:01:36;;;;;;;0.00;0.00;;;9.80;99.90;;;;;;5093919;28;20170;-69
2023/12/26 10:04:06;;;;;;;1.90;1.08;;;9.80;99.90;;;;;;5090333;28;20112;-70
2023/12/26 10:06:32;;;;;;;2.30;1.48;;;9.80;99.90;;;;;;5084212;28;20380;-69
2023/12/26 10:08:58;;;;;;;3.40;0.80;;;9.80;99.90;;;;;;5094155;28;20080;-70
2023/12/26 10:11:28;;;;;;;1.27;0.90;;;9.90;99.90;;;;;;5093969;28;20416;-70
2023/12/26 10:13:55;;;;;;;0.10;0.10;;;10.00;99.90;;;;;;5075861;28;20434;-70
2023/12/26 10:16:21;;;;;;;0.00;0.00;;;10.00;99.90;;;;;;5093959;28;20031;-69
2023/12/26 10:18:48;;;;;;;0.35;0.35;;;10.20;99.90;;;;;;5094165;28;20035;-69
2023/12/26 10:21:14;;;;;;;1.77;0.38;;;10.40;99.90;;;;;;5093979;28;20012;-70
2023/12/26 10:23:40;;;;;;;6.82;0.85;;;10.50;99.90;;;;;;5084490;28;20409;-69
2023/12/26 10:26:07;;;;;;;0.80;0.63;;;10.70;99.90;;;;;;5087428;28;20035;-69
2023/12/26 10:28:41;;;;;;;0.10;0.10;;;10.90;99.90;;;;;;5093844;28;20020;-69
2023/12/26 10:31:14;;;;;;;13.85;0.80;;;11.30;99.90;;;;;;5093727;28;20036;-70
2023/12/26 10:33:44;;;;;;;4.22;1.10;;;11.50;99.90;;;;;;5093053;28;20067;-69
2023/12/26 10:36:10;;;;;;;1.65;1.15;;;11.60;99.90;;;;;;5093759;28;20028;-70
2023/12/26 10:38:38;;;;;;;0.30;0.30;;;11.70;99.90;;;;;;5093392;28;20024;-69
2023/12/26 10:41:14;;;;;;;0.98;0.88;;;11.80;99.90;;;;;;5093736;28;20020;-70
2023/12/26 10:43:41;;;;;;;0.47;0.47;;;11.60;99.90;;;;;;5093127;28;20059;-69
2023/12/26 10:46:10;;;;;;;0.63;0.52;;;11.80;99.90;;;;;;5058785;28;20503;-70
2023/12/26 10:48:36;;;;;;;10.25;3.30;;;12.20;99.90;;;;;;5092985;28;20101;-70
2023/12/26 10:51:04;;;;;;;7.82;0.73;;;11.90;99.90;;;;;;5093341;28;20020;-69
2023/12/26 10:53:43;;;;;;;0.55;0.55;;;11.80;99.90;;;;;;5092828;28;20032;-69
2023/12/26 10:56:11;;;;;;;1.83;1.73;;;12.00;99.90;;;;;;5075158;28;20043;-69
2023/12/26 10:58:40;;;;;;;4.47;1.10;;;12.10;99.90;;;;;;5091683;28;20082;-69
2023/12/26 11:01:07;;;;;;;7.65;1.52;;;12.10;99.90;;;;;;5080837;28;20060;-69
2023/12/26 11:03:34;;;;;;;28.02;2.08;;;12.10;99.90;;;;;;5092745;28;20028;-70
2023/12/26 11:06:00;;;;;;;0.30;0.20;;;11.90;99.90;;;;;;5064576;28;20012;-71
2023/12/26 11:08:26;;;;;;;3.55;0.77;;;12.00;99.90;;;;;;5074942;28;20032;-70
2023/12/26 11:10:52;;;;;;;6.28;1.42;;;11.90;99.90;;;;;;5064842;28;20028;-70
2023/12/26 11:13:18;;;;;;;0.80;0.40;;;12.00;99.90;;;;;;5092694;28;20453;-69
2023/12/26 11:15:45;;;;;;;1.48;0.73;;;12.30;99.90;;;;;;5078822;28;20025;-69
2023/12/26 11:18:11;;;;;;;4.00;1.27;;;12.10;99.90;;;;;;5092837;28;20028;-71
2023/12/26 11:20:38;;;;;;;1.35;0.52;;;12.20;99.90;;;;;;5092931;28;20027;-70
2023/12/26 11:23:04;;;;;;;8.43;4.45;;;12.50;99.90;;;;;;5090007;28;20070;-70
2023/12/26 11:25:30;;;;;;;1.65;0.85;;;12.50;99.90;;;;;;5081814;28;20036;-70
2023/12/26 11:27:58;;;;;;;23.00;3.75;;;12.60;99.90;;;;;;5091941;28;20028;-71
2023/12/26 11:30:24;;;;;;;6.35;1.42;;;12.90;99.90;;;;;;5062297;28;20096;-70
2023/12/26 11:32:51;;;;;;;1.85;0.52;;;12.90;99.90;;;;;;5092471;28;20043;-69
2023/12/26 11:35:17;;;;;;;3.63;0.47;;;13.00;99.90;;;;;;5092902;28;20020;-70
2023/12/26 11:37:43;;;;;;;1.45;0.75;;;13.00;99.90;;;;;;5092753;28;20077;-71
2023/12/26 11:40:09;;;;;;;5.20;1.20;;;12.90;99.90;;;;;;5092687;28;20380;-71
2023/12/26 11:45:05;;;;;;;9.10;1.55;;;13.30;99.90;;;;;;5107340;28;20120;-70
2023/12/26 11:47:31;;;;;;;2.75;0.77;;;13.50;99.90;;;;;;5112956;28;20024;-70
2023/12/26 11:49:56;;;;;;;5.97;0.65;;;13.50;99.90;;;;;;5113154;28;20036;-70
2023/12/26 11:52:22;;;;;;;10.88;1.75;;;13.20;99.90;;;;;;5078462;28;20079;-70
2023/12/26 11:54:48;;;;;;;11.43;1.80;;;13.10;99.90;;;;;;5091474;28;20040;-70
2023/12/26 11:57:14;;;;;;;4.05;0.45;;;12.90;99.90;;;;;;5092468;28;20048;-70
2023/12/26 11:59:40;;;;;;;1.27;0.38;;;12.80;99.90;;;;;;5092489;28;20093;-70
2023/12/26 12:02:06;;;;;;;3.00;0.63;;;13.10;99.90;;;;;;5092376;28;20388;-72
2023/12/26 12:04:32;;;;;;;2.15;1.33;;;12.70;99.90;;;;;;5092626;28;20430;-70
2023/12/26 12:07:13;;;;;;;3.15;0.65;;;12.80;99.90;;;;;;5091254;28;20108;-71
2023/12/26 12:09:39;;;;;;;2.40;1.38;;;12.80;99.90;;;;;;5092514;28;20027;-71
2023/12/26 12:12:04;;;;;;;5.22;1.77;;;12.80;99.90;;;;;;5092088;28;20025;-71
2023/12/26 12:14:32;;;;;;;4.32;1.15;;;13.00;99.90;;;;;;5092055;28;20492;-70
2023/12/26 12:17:13;;;;;;;13.57;0.75;;;12.90;99.90;;;;;;5092635;28;20453;-71
2023/12/26 12:19:44;;;;;;;3.00;1.33;;;12.70;99.90;;;;;;5082504;28;20480;-70
2023/12/26 12:22:25;;;;;;;10.55;1.17;;;12.90;99.90;;;;;;5096071;28;20020;-71
2023/12/26 12:24:51;;;;;;;1.38;0.52;;;12.20;99.90;;;;;;5093395;28;20028;-69
2023/12/26 12:27:17;;;;;;;5.18;0.47;;;11.90;99.90;;;;;;5096180;28;20537;-71
2023/12/26 12:29:58;;;;;;;12.55;0.90;;;11.80;99.90;;;;;;5094357;28;20065;-70
2023/12/26 12:32:33;;;;;;;5.22;1.35;;;11.70;99.90;;;;;;5095873;28;20047;-69
2023/12/26 12:35:16;;;;;;;5.07;1.05;;;11.50;99.90;;;;;;5095638;28;20024;-71
2023/12/26 12:37:45;;;;;;;8.07;1.95;;;11.30;99.90;;;;;;5096193;28;20380;-70
2023/12/26 12:40:11;;;;;;;1.50;0.85;;;11.20;99.90;;;;;;5095798;28;20016;-69
2023/12/26 12:42:37;;;;;;;0.73;0.05;;;11.30;99.90;;;;;;5095869;28;20043;-71
2023/12/26 12:45:03;;;;;;;2.63;0.60;;;11.10;99.90;;;;;;5095167;28;20028;-71